Time,TemperatureF,DewpointF,PressureIn,WindDirection,WindDirectionDegrees,WindSpeedMPH,WindSpeedGustMPH,Humidity,HourlyPrecipIn,Conditions,Clouds,dailyrainin,SoftwareType,DateUTC
2013-10-08 00:05:00,50.4,48.7,30.02,North,360,0.0,0.0,94,0.00,,,0.00,Wunderground v.1.15,2013-10-08 04:05:00,
2013-10-08 00:09:00,50.4,48.7,30.02,North,32767,0.0,0.0,94,0.00,,,0.00,Wunderground v.1.15,2013-10-08 04:09:00,
2013-10-08 00:20:00,50.2,48.5,30.02,North,360,0.0,0.0,94,0.00,,,0.00,Wunderground v.1.15,2013-10-08 04:20:00,
2013-10-08 00:25:00,50.0,48.6,30.02,North,360,0.0,0.0,95,0.00,,,0.00,Wunderground v.1.15,2013-10-08 04:25:00,
2013-10-08 00:30:00,49.9,48.5,30.02,North,360,0.0,0.0,95,0.00,,,0.00,Wunderground v.1.15,2013-10-08 04:30:00,
2013-10-08 00:39:00,49.6,48.2,30.02,North,360,0.0,0.0,95,0.00,,,0.00,Wunderground v.1.15,2013-10-08 04:39:00,
2013-10-08 00:50:00,49.3,47.9,30.02,North,32767,0.0,0.0,95,0.00,,,0.00,Wunderground v.1.15,2013-10-08 04:50:00,
2013-10-08 01:00:00,49.2,48.1,30.02,North,32767,0.0,0.0,96,0.00,,,0.00,Wunderground v.1.15,2013-10-08 05:00:00,
2013-10-08 01:05:00,49.1,48.0,30.03,North,32767,0.0,0.0,96,0.00,,,0.00,Wunderground v.1.15,2013-10-08 05:05:00,
2013-10-08 01:15:00,48.9,47.8,30.03,North,32767,0.0,0.0,96,0.00,,,0.00,Wunderground v.1.15,2013-10-08 05:15:00,
2013-10-08 01:24:00,48.7,47.6,30.03,North,32767,0.0,0.0,96,0.00,,,0.00,Wunderground v.1.15,2013-10-08 05:24:00,
2013-10-08 01:35:00,48.6,47.5,30.03,North,32767,0.0,0.0,96,0.00,,,0.00,Wunderground v.1.15,2013-10-08 05:35:00,
2013-10-08 01:40:00,48.5,47.4,30.03,North,32767,0.0,0.0,96,0.00,,,0.00,Wunderground v.1.15,2013-10-08 05:40:00,
2013-10-08 01:45:00,48.5,47.4,30.03,North,32767,0.0,0.0,96,0.00,,,0.00,Wunderground v.1.15,2013-10-08 05:45:00,
2013-10-08 01:55:00,48.4,47.6,30.03,North,32767,0.0,0.0,97,0.00,,,0.00,Wunderground v.1.15,2013-10-08 05:55:00,
2013-10-08 02:00:00,48.3,47.5,30.03,North,32767,0.0,0.0,97,0.00,,,0.00,Wunderground v.1.15,2013-10-08 06:00:00,
2013-10-08 02:05:00,48.3,47.5,30.03,North,32767,0.0,0.0,97,0.00,,,0.00,Wunderground v.1.15,2013-10-08 06:05:00,
2013-10-08 02:15:00,48.1,47.3,30.03,North,32767,0.0,0.0,97,0.00,,,0.00,Wunderground v.1.15,2013-10-08 06:15:00,
2013-10-08 02:24:00,48.1,47.3,30.04,North,32767,0.0,0.0,97,0.00,,,0.00,Wunderground v.1.15,2013-10-08 06:24:00,
2013-10-08 02:30:00,48.0,47.2,30.03,North,32767,0.0,0.0,97,0.00,,,0.00,Wunderground v.1.15,2013-10-08 06:30:00,
2013-10-08 02:40:00,47.9,47.1,30.03,North,32767,0.0,0.0,97,0.00,,,0.00,Wunderground v.1.15,2013-10-08 06:40:00,
2013-10-08 02:50:00,47.8,47.0,30.03,North,32767,0.0,0.0,97,0.00,,,0.00,Wunderground v.1.15,2013-10-08 06:50:00,
2013-10-08 03:00:00,47.8,47.0,30.03,North,360,0.0,0.0,97,0.00,,,0.00,Wunderground v.1.15,2013-10-08 07:00:00,
2013-10-08 03:05:00,47.8,47.0,30.03,North,360,0.0,0.0,97,0.00,,,0.00,Wunderground v.1.15,2013-10-08 07:05:00,
2013-10-08 03:14:00,47.7,46.9,30.03,North,360,0.0,0.0,97,0.00,,,0.00,Wunderground v.1.15,2013-10-08 07:14:00,
2013-10-08 03:20:00,47.6,46.8,30.03,North,360,0.0,0.0,97,0.00,,,0.00,Wunderground v.1.15,2013-10-08 07:20:00,
2013-10-08 03:30:00,47.5,46.7,30.03,North,360,0.0,0.0,97,0.00,,,0.00,Wunderground v.1.15,2013-10-08 07:30:00,
2013-10-08 03:40:00,47.3,46.5,30.03,North,360,0.0,0.0,97,0.00,,,0.00,Wunderground v.1.15,2013-10-08 07:40:00,
2013-10-08 03:49:00,47.2,46.4,30.03,North,360,0.0,0.0,97,0.00,,,0.00,Wunderground v.1.15,2013-10-08 07:49:00,
2013-10-08 03:55:00,47.1,46.3,30.03,North,32767,0.0,0.0,97,0.00,,,0.00,Wunderground v.1.15,2013-10-08 07:55:00,
2013-10-08 04:05:00,47.1,46.3,30.03,North,32767,0.0,0.0,97,0.00,,,0.00,Wunderground v.1.15,2013-10-08 08:05:00,
2013-10-08 04:15:00,47.2,46.4,30.03,North,32767,0.0,0.0,97,0.00,,,0.00,Wunderground v.1.15,2013-10-08 08:15:00,
2013-10-08 04:25:00,47.2,46.1,30.03,North,32767,0.0,0.0,96,0.00,,,0.00,Wunderground v.1.15,2013-10-08 08:25:00,
2013-10-08 04:34:00,47.2,46.1,30.04,North,360,0.0,0.0,96,0.00,,,0.00,Wunderground v.1.15,2013-10-08 08:34:00,
2013-10-08 04:44:00,47.1,46.0,30.04,North,32767,0.0,0.0,96,0.00,,,0.00,Wunderground v.1.15,2013-10-08 08:44:00,
2013-10-08 04:50:00,47.0,45.9,30.04,North,32767,0.0,0.0,96,0.00,,,0.00,Wunderground v.1.15,2013-10-08 08:50:00,
2013-10-08 05:00:00,46.9,45.8,30.04,North,32767,0.0,0.0,96,0.00,,,0.00,Wunderground v.1.15,2013-10-08 09:00:00,
2013-10-08 05:05:00,46.8,45.7,30.05,North,32767,0.0,0.0,96,0.00,,,0.00,Wunderground v.1.15,2013-10-08 09:05:00,
2013-10-08 05:15:00,46.7,45.6,30.05,North,32767,0.0,0.0,96,0.00,,,0.00,Wunderground v.1.15,2013-10-08 09:15:00,
2013-10-08 05:24:00,46.5,45.4,30.05,North,32767,0.0,0.0,96,0.00,,,0.00,Wunderground v.1.15,2013-10-08 09:24:00,
2013-10-08 05:35:00,46.3,45.5,30.05,North,360,0.0,0.0,97,0.00,,,0.00,Wunderground v.1.15,2013-10-08 09:35:00,
2013-10-08 05:45:00,46.2,45.4,30.06,North,360,0.0,0.0,97,0.00,,,0.00,Wunderground v.1.15,2013-10-08 09:45:00,
2013-10-08 05:55:00,46.2,45.4,30.07,North,32767,0.0,0.0,97,0.00,,,0.00,Wunderground v.1.15,2013-10-08 09:55:00,
2013-10-08 06:05:00,46.2,45.4,30.07,North,32767,0.0,0.0,97,0.00,,,0.00,Wunderground v.1.15,2013-10-08 10:05:00,
2013-10-08 06:14:00,46.1,45.3,30.07,North,360,0.0,0.0,97,0.00,,,0.00,Wunderground v.1.15,2013-10-08 10:14:00,
2013-10-08 06:24:00,46.1,45.3,30.08,North,360,0.0,0.0,97,0.00,,,0.00,Wunderground v.1.15,2013-10-08 10:24:00,
2013-10-08 06:30:00,45.9,45.1,30.08,North,32767,0.0,0.0,97,0.00,,,0.00,Wunderground v.1.15,2013-10-08 10:30:00,
2013-10-08 06:40:00,45.5,44.7,30.09,North,32767,0.0,0.0,97,0.00,,,0.00,Wunderground v.1.15,2013-10-08 10:40:00,
2013-10-08 06:49:00,45.4,44.6,30.09,North,32767,0.0,0.0,97,0.00,,,0.00,Wunderground v.1.15,2013-10-08 10:49:00,
2013-10-08 06:54:00,45.4,44.6,30.09,North,32767,0.0,0.0,97,0.00,,,0.00,Wunderground v.1.15,2013-10-08 10:54:00,
2013-10-08 07:00:00,45.4,44.6,30.09,North,32767,0.0,0.0,97,0.00,,,0.00,Wunderground v.1.15,2013-10-08 11:00:00,
2013-10-08 07:05:00,45.4,44.6,30.09,North,360,0.0,0.0,97,0.00,,,0.00,Wunderground v.1.15,2013-10-08 11:05:00,
2013-10-08 07:15:00,45.4,44.6,30.09,North,32767,0.0,0.0,97,0.00,,,0.00,Wunderground v.1.15,2013-10-08 11:15:00,
2013-10-08 07:20:00,45.4,44.6,30.10,North,32767,0.0,0.0,97,0.00,,,0.00,Wunderground v.1.15,2013-10-08 11:20:00,
2013-10-08 07:29:00,45.3,44.5,30.10,North,360,0.0,0.0,97,0.00,,,0.00,Wunderground v.1.15,2013-10-08 11:29:00,
2013-10-08 07:39:00,45.3,44.5,30.11,North,360,0.0,0.0,97,0.00,,,0.00,Wunderground v.1.15,2013-10-08 11:39:00,
2013-10-08 07:44:00,45.3,44.5,30.11,North,32767,0.0,0.0,97,0.00,,,0.00,Wunderground v.1.15,2013-10-08 11:44:00,
2013-10-08 07:50:00,45.2,44.4,30.11,North,32767,0.0,0.0,97,0.00,,,0.00,Wunderground v.1.15,2013-10-08 11:50:00,
2013-10-08 07:55:00,45.2,44.4,30.12,North,32767,0.0,0.0,97,0.00,,,0.00,Wunderground v.1.15,2013-10-08 11:55:00,
2013-10-08 08:05:00,45.2,44.4,30.12,North,32767,0.0,0.0,97,0.00,,,0.00,Wunderground v.1.15,2013-10-08 12:05:00,
2013-10-08 08:15:00,45.3,44.5,30.12,North,32767,0.0,0.0,97,0.00,,,0.00,Wunderground v.1.15,2013-10-08 12:15:00,
2013-10-08 08:25:00,45.4,44.6,30.13,North,32767,0.0,0.0,97,0.00,,,0.00,Wunderground v.1.15,2013-10-08 12:25:00,
2013-10-08 08:35:00,45.4,44.6,30.13,North,32767,0.0,0.0,97,0.00,,,0.00,Wunderground v.1.15,2013-10-08 12:35:00,
2013-10-08 08:40:00,45.4,44.6,30.14,North,360,0.0,0.0,97,0.00,,,0.00,Wunderground v.1.15,2013-10-08 12:40:00,
2013-10-08 08:49:00,45.0,44.2,30.14,North,32767,0.0,0.0,97,0.00,,,0.00,Wunderground v.1.15,2013-10-08 12:49:00,
2013-10-08 08:54:00,45.0,44.2,30.14,North,32767,0.0,0.0,97,0.00,,,0.00,Wunderground v.1.15,2013-10-08 12:54:00,
2013-10-08 08:59:00,44.9,44.1,30.14,North,32767,0.0,0.0,97,0.00,,,0.00,Wunderground v.1.15,2013-10-08 12:59:00,
2013-10-08 09:05:00,44.9,44.4,30.15,North,32767,0.0,0.0,98,0.00,,,0.00,Wunderground v.1.15,2013-10-08 13:05:00,
2013-10-08 09:14:00,45.0,44.5,30.15,North,360,0.0,0.0,98,0.00,,,0.00,Wunderground v.1.15,2013-10-08 13:14:00,
2013-10-08 09:19:00,45.2,44.7,30.15,North,32767,0.0,0.0,98,0.00,,,0.00,Wunderground v.1.15,2013-10-08 13:19:00,
2013-10-08 09:24:00,45.4,44.9,30.15,North,32767,0.0,0.0,98,0.00,,,0.00,Wunderground v.1.15,2013-10-08 13:24:00,
2013-10-08 09:30:00,45.5,45.0,30.15,North,32767,0.0,0.0,98,0.00,,,0.00,Wunderground v.1.15,2013-10-08 13:30:00,
2013-10-08 09:40:00,46.0,45.7,30.15,North,360,0.0,0.0,99,0.00,,,0.00,Wunderground v.1.15,2013-10-08 13:40:00,
2013-10-08 09:45:00,46.4,46.1,30.16,North,360,0.0,0.0,99,0.00,,,0.00,Wunderground v.1.15,2013-10-08 13:45:00,
2013-10-08 09:55:00,46.9,46.6,30.16,North,360,0.0,0.0,99,0.00,,,0.00,Wunderground v.1.15,2013-10-08 13:55:00,
2013-10-08 09:59:00,47.0,46.7,30.16,North,32767,0.0,0.0,99,0.00,,,0.00,Wunderground v.1.15,2013-10-08 13:59:00,
2013-10-08 10:05:00,47.0,46.7,30.16,North,32767,0.0,0.0,99,0.00,,,0.00,Wunderground v.1.15,2013-10-08 14:05:00,
2013-10-08 10:14:00,47.1,46.8,30.16,North,360,0.0,0.0,99,0.00,,,0.00,Wunderground v.1.15,2013-10-08 14:14:00,
2013-10-08 10:24:00,47.1,46.8,30.17,North,32767,0.0,0.0,99,0.00,,,0.00,Wunderground v.1.15,2013-10-08 14:24:00,
2013-10-08 10:29:00,47.1,46.8,30.17,North,32767,0.0,0.0,99,0.00,,,0.00,Wunderground v.1.15,2013-10-08 14:29:00,
2013-10-08 10:40:00,47.4,47.1,30.17,North,360,0.0,0.0,99,0.00,,,0.00,Wunderground v.1.15,2013-10-08 14:40:00,
2013-10-08 10:45:00,47.6,47.3,30.17,North,32767,0.0,0.0,99,0.00,,,0.00,Wunderground v.1.15,2013-10-08 14:45:00,
2013-10-08 10:50:00,47.7,47.4,30.17,North,32767,0.0,0.0,99,0.00,,,0.00,Wunderground v.1.15,2013-10-08 14:50:00,
2013-10-08 10:55:00,48.0,47.7,30.17,North,32767,0.0,0.0,99,0.00,,,0.00,Wunderground v.1.15,2013-10-08 14:55:00,
2013-10-08 11:00:00,48.3,48.0,30.17,North,32767,0.0,0.0,99,0.00,,,0.00,Wunderground v.1.15,2013-10-08 15:00:00,
2013-10-08 11:05:00,48.6,48.3,30.17,North,360,0.0,0.0,99,0.00,,,0.00,Wunderground v.1.15,2013-10-08 15:05:00,
2013-10-08 11:15:00,49.1,48.6,30.16,North,32767,0.0,0.0,98,0.00,,,0.00,Wunderground v.1.15,2013-10-08 15:15:00,
2013-10-08 11:24:00,49.9,49.4,30.16,North,360,0.0,0.0,98,0.00,,,0.00,Wunderground v.1.15,2013-10-08 15:24:00,
2013-10-08 11:29:00,51.1,50.6,30.16,North,360,0.0,0.0,98,0.00,,,0.00,Wunderground v.1.15,2013-10-08 15:29:00,
2013-10-08 11:39:00,51.6,50.5,30.17,North,360,0.0,0.0,96,0.00,,,0.00,Wunderground v.1.15,2013-10-08 15:39:00,
2013-10-08 11:45:00,52.5,50.8,30.17,North,32767,0.0,0.0,94,0.00,,,0.00,Wunderground v.1.15,2013-10-08 15:45:00,
2013-10-08 11:55:00,53.4,51.4,30.16,North,360,0.0,0.0,93,0.00,,,0.00,Wunderground v.1.15,2013-10-08 15:55:00,
2013-10-08 12:05:00,55.7,50.6,30.16,North,360,0.0,0.0,83,0.00,,,0.00,Wunderground v.1.15,2013-10-08 16:05:00,
2013-10-08 12:14:00,57.5,51.4,30.16,North,32767,0.0,0.0,80,0.00,,,0.00,Wunderground v.1.15,2013-10-08 16:14:00,
2013-10-08 12:24:00,58.2,50.3,30.16,North,32767,0.0,0.0,75,0.00,,,0.00,Wunderground v.1.15,2013-10-08 16:24:00,
2013-10-08 12:34:00,58.1,50.6,30.16,North,32767,0.0,0.0,76,0.00,,,0.00,Wunderground v.1.15,2013-10-08 16:34:00,
2013-10-08 12:40:00,58.1,50.9,30.16,North,360,0.0,0.0,77,0.00,,,0.00,Wunderground v.1.15,2013-10-08 16:40:00,
2013-10-08 12:50:00,57.7,49.5,30.15,North,32767,0.0,0.0,74,0.00,,,0.00,Wunderground v.1.15,2013-10-08 16:50:00,
2013-10-08 12:59:00,57.4,50.2,30.15,North,360,0.0,0.0,77,0.00,,,0.00,Wunderground v.1.15,2013-10-08 16:59:00,
2013-10-08 13:05:00,57.7,49.8,30.15,North,32767,0.0,0.0,75,0.00,,,0.00,Wunderground v.1.15,2013-10-08 17:05:00,
2013-10-08 13:14:00,58.6,49.6,30.14,North,32767,0.0,0.0,72,0.00,,,0.00,Wunderground v.1.15,2013-10-08 17:14:00,
2013-10-08 13:24:00,59.0,50.7,30.14,North,32767,0.0,0.0,74,0.00,,,0.00,Wunderground v.1.15,2013-10-08 17:24:00,
2013-10-08 13:30:00,59.6,50.6,30.14,North,32767,0.0,0.0,72,0.00,,,0.00,Wunderground v.1.15,2013-10-08 17:30:00,
2013-10-08 13:40:00,60.4,51.7,30.13,North,32767,0.0,0.0,73,0.00,,,0.00,Wunderground v.1.15,2013-10-08 17:40:00,
2013-10-08 13:49:00,61.0,50.4,30.12,North,32767,0.0,0.0,68,0.00,,,0.00,Wunderground v.1.15,2013-10-08 17:49:00,
2013-10-08 13:59:00,61.1,50.1,30.12,North,32767,0.0,0.0,67,0.00,,,0.00,Wunderground v.1.15,2013-10-08 17:59:00,
2013-10-08 14:05:00,61.2,50.9,30.12,North,32767,0.0,0.0,69,0.00,,,0.00,Wunderground v.1.15,2013-10-08 18:05:00,
2013-10-08 14:14:00,61.5,50.4,30.12,North,32767,0.0,0.0,67,0.00,,,0.00,Wunderground v.1.15,2013-10-08 18:14:00,
2013-10-08 14:20:00,61.6,50.1,30.12,North,360,0.0,0.0,66,0.00,,,0.00,Wunderground v.1.15,2013-10-08 18:20:00,
2013-10-08 14:30:00,61.7,50.2,30.12,North,32767,0.0,0.0,66,0.00,,,0.00,Wunderground v.1.15,2013-10-08 18:30:00,
2013-10-08 14:39:00,62.3,52.4,30.12,North,360,0.0,0.0,70,0.00,,,0.00,Wunderground v.1.15,2013-10-08 18:39:00,
2013-10-08 14:50:00,63.1,53.5,30.12,North,32767,0.0,0.0,71,0.00,,,0.00,Wunderground v.1.15,2013-10-08 18:50:00,
2013-10-08 15:00:00,64.2,52.6,30.12,North,32767,0.0,0.0,66,0.00,,,0.00,Wunderground v.1.15,2013-10-08 19:00:00,
2013-10-08 15:05:00,63.4,51.4,30.12,North,360,0.0,0.0,65,0.00,,,0.00,Wunderground v.1.15,2013-10-08 19:05:00,
2013-10-08 15:15:00,63.1,52.4,30.12,North,32767,0.0,0.0,68,0.00,,,0.00,Wunderground v.1.15,2013-10-08 19:15:00,
2013-10-08 15:24:00,63.7,52.9,30.12,North,360,0.0,0.0,68,0.00,,,0.00,Wunderground v.1.15,2013-10-08 19:24:00,
2013-10-08 15:35:00,63.7,54.1,30.12,North,360,0.0,0.0,71,0.00,,,0.00,Wunderground v.1.15,2013-10-08 19:35:00,
2013-10-08 15:40:00,63.7,54.1,30.12,North,32767,0.0,0.0,71,0.00,,,0.00,Wunderground v.1.15,2013-10-08 19:40:00,
2013-10-08 15:55:00,64.5,53.7,30.12,North,360,0.0,0.0,68,0.00,,,0.00,Wunderground v.1.15,2013-10-08 19:55:00,
2013-10-08 16:05:00,64.8,53.6,30.12,North,360,0.0,0.0,67,0.00,,,0.00,Wunderground v.1.15,2013-10-08 20:05:00,
2013-10-08 16:15:00,64.9,53.3,30.12,North,360,0.0,0.0,66,0.00,,,0.00,Wunderground v.1.15,2013-10-08 20:15:00,
2013-10-08 16:20:00,65.1,54.3,30.12,North,32767,0.0,0.0,68,0.00,,,0.00,Wunderground v.1.15,2013-10-08 20:20:00,
2013-10-08 16:25:00,65.2,53.6,30.12,North,32767,0.0,0.0,66,0.00,,,0.00,Wunderground v.1.15,2013-10-08 20:25:00,
2013-10-08 16:35:00,65.0,52.9,30.12,North,32767,0.0,0.0,65,0.00,,,0.00,Wunderground v.1.15,2013-10-08 20:35:00,
2013-10-08 16:44:00,64.8,53.6,30.12,North,32767,0.0,0.0,67,0.00,,,0.00,Wunderground v.1.15,2013-10-08 20:44:00,
2013-10-08 16:55:00,64.5,53.3,30.12,North,32767,0.0,0.0,67,0.00,,,0.00,Wunderground v.1.15,2013-10-08 20:55:00,
2013-10-08 17:09:00,64.0,53.2,30.12,North,360,0.0,0.0,68,0.00,,,0.00,Wunderground v.1.15,2013-10-08 21:09:00,
2013-10-08 17:14:00,63.9,53.5,30.12,North,360,0.0,0.0,69,0.00,,,0.00,Wunderground v.1.15,2013-10-08 21:14:00,
2013-10-08 17:25:00,63.7,52.5,30.12,North,360,0.0,0.0,67,0.00,,,0.00,Wunderground v.1.15,2013-10-08 21:25:00,
2013-10-08 17:35:00,63.1,52.8,30.12,North,360,0.0,0.0,69,0.00,,,0.00,Wunderground v.1.15,2013-10-08 21:35:00,
2013-10-08 17:44:00,63.0,53.4,30.12,North,32767,0.0,0.0,71,0.00,,,0.00,Wunderground v.1.15,2013-10-08 21:44:00,
2013-10-08 17:54:00,62.8,53.6,30.12,North,32767,0.0,0.0,72,0.00,,,0.00,Wunderground v.1.15,2013-10-08 21:54:00,
2013-10-08 18:00:00,62.6,53.1,30.13,North,360,0.0,0.0,71,0.00,,,0.00,Wunderground v.1.15,2013-10-08 22:00:00,
2013-10-08 18:05:00,62.4,53.3,30.13,North,32767,0.0,0.0,72,0.00,,,0.00,Wunderground v.1.15,2013-10-08 22:05:00,
2013-10-08 18:15:00,61.8,52.3,30.13,North,360,0.0,0.0,71,0.00,,,0.00,Wunderground v.1.15,2013-10-08 22:15:00,
2013-10-08 18:24:00,60.7,52.4,30.13,North,32767,0.0,0.0,74,0.00,,,0.00,Wunderground v.1.15,2013-10-08 22:24:00,
2013-10-08 18:35:00,59.3,51.4,30.13,North,32767,0.0,0.0,75,0.00,,,0.00,Wunderground v.1.15,2013-10-08 22:35:00,
2013-10-08 18:45:00,58.5,51.7,30.13,North,32767,0.0,0.0,78,0.00,,,0.00,Wunderground v.1.15,2013-10-08 22:45:00,
2013-10-08 18:54:00,57.7,51.2,30.13,North,32767,0.0,0.0,79,0.00,,,0.00,Wunderground v.1.15,2013-10-08 22:54:00,
2013-10-08 19:05:00,57.2,51.1,30.13,North,32767,0.0,0.0,80,0.00,,,0.00,Wunderground v.1.15,2013-10-08 23:05:00,
2013-10-08 19:14:00,56.7,50.6,30.13,North,360,0.0,0.0,80,0.00,,,0.00,Wunderground v.1.15,2013-10-08 23:14:00,
2013-10-08 19:25:00,56.2,50.8,30.14,North,32767,0.0,0.0,82,0.00,,,0.00,Wunderground v.1.15,2013-10-08 23:25:00,
2013-10-08 19:35:00,55.9,50.5,30.14,North,32767,0.0,0.0,82,0.00,,,0.00,Wunderground v.1.15,2013-10-08 23:35:00,
2013-10-08 19:44:00,55.5,50.1,30.14,North,32767,0.0,0.0,82,0.00,,,0.00,Wunderground v.1.15,2013-10-08 23:44:00,
2013-10-08 19:54:00,55.2,50.1,30.14,North,32767,0.0,0.0,83,0.00,,,0.00,Wunderground v.1.15,2013-10-08 23:54:00,
2013-10-08 20:00:00,55.0,49.9,30.14,North,32767,0.0,0.0,83,0.00,,,0.00,Wunderground v.1.15,2013-10-09 00:00:00,
2013-10-08 20:05:00,54.8,49.7,30.15,North,32767,0.0,0.0,83,0.00,,,0.00,Wunderground v.1.15,2013-10-09 00:05:00,
2013-10-08 20:14:00,54.6,49.9,30.14,North,32767,0.0,0.0,84,0.00,,,0.00,Wunderground v.1.15,2013-10-09 00:14:00,
2013-10-08 20:20:00,54.4,49.7,30.15,North,32767,0.0,0.0,84,0.00,,,0.00,Wunderground v.1.15,2013-10-09 00:20:00,
2013-10-08 20:29:00,54.0,49.6,30.15,North,360,0.0,0.0,85,0.00,,,0.00,Wunderground v.1.15,2013-10-09 00:29:00,
2013-10-08 20:39:00,53.6,49.5,30.16,North,360,0.0,0.0,86,0.00,,,0.00,Wunderground v.1.15,2013-10-09 00:39:00,
2013-10-08 20:50:00,53.3,48.9,30.16,North,32767,0.0,0.0,85,0.00,,,0.00,Wunderground v.1.15,2013-10-09 00:50:00,
2013-10-08 21:00:00,53.2,49.1,30.17,North,360,0.0,0.0,86,0.00,,,0.00,Wunderground v.1.15,2013-10-09 01:00:00,
2013-10-08 21:05:00,53.1,49.0,30.17,North,32767,0.0,0.0,86,0.00,,,0.00,Wunderground v.1.15,2013-10-09 01:05:00,
2013-10-08 21:15:00,53.0,48.9,30.17,North,32767,0.0,0.0,86,0.00,,,0.00,Wunderground v.1.15,2013-10-09 01:15:00,
2013-10-08 21:24:00,53.2,48.5,30.17,North,32767,0.0,0.0,84,0.00,,,0.00,Wunderground v.1.15,2013-10-09 01:24:00,
2013-10-08 21:35:00,53.5,48.5,30.18,North,32767,0.0,0.0,83,0.00,,,0.00,Wunderground v.1.15,2013-10-09 01:35:00,
2013-10-08 21:45:00,53.5,48.5,30.18,North,360,0.0,0.0,83,0.00,,,0.00,Wunderground v.1.15,2013-10-09 01:45:00,
2013-10-08 21:54:00,53.3,48.3,30.18,North,32767,0.0,0.0,83,0.00,,,0.00,Wunderground v.1.15,2013-10-09 01:54:00,
2013-10-08 22:05:00,53.2,48.5,30.18,North,32767,0.0,0.0,84,0.00,,,0.00,Wunderground v.1.15,2013-10-09 02:05:00,
2013-10-08 22:14:00,52.9,48.8,30.19,North,32767,0.0,0.0,86,0.00,,,0.00,Wunderground v.1.15,2013-10-09 02:14:00,
2013-10-08 22:25:00,52.6,48.2,30.19,North,32767,0.0,0.0,85,0.00,,,0.00,Wunderground v.1.15,2013-10-09 02:25:00,
2013-10-08 22:30:00,52.4,48.3,30.19,North,32767,0.0,0.0,86,0.00,,,0.00,Wunderground v.1.15,2013-10-09 02:30:00,
2013-10-08 22:39:00,51.9,47.5,30.18,North,360,0.0,0.0,85,0.00,,,0.00,Wunderground v.1.15,2013-10-09 02:39:00,
2013-10-08 22:49:00,51.7,47.6,30.19,North,360,0.0,0.0,86,0.00,,,0.00,Wunderground v.1.15,2013-10-09 02:49:00,
2013-10-08 22:55:00,51.6,47.5,30.19,North,360,0.0,0.0,86,0.00,,,0.00,Wunderground v.1.15,2013-10-09 02:55:00,
2013-10-08 23:05:00,51.6,47.2,30.19,North,360,0.0,0.0,85,0.00,,,0.00,Wunderground v.1.15,2013-10-09 03:05:00,
2013-10-08 23:15:00,51.6,47.5,30.19,North,32767,0.0,0.0,86,0.00,,,0.00,Wunderground v.1.15,2013-10-09 03:15:00,
2013-10-08 23:24:00,51.2,47.2,30.20,North,32767,0.0,0.0,86,0.00,,,0.00,Wunderground v.1.15,2013-10-09 03:24:00,
2013-10-08 23:29:00,51.1,47.1,30.19,North,32767,0.0,0.0,86,0.00,,,0.00,Wunderground v.1.15,2013-10-09 03:29:00,
2013-10-08 23:39:00,50.8,46.8,30.19,North,32767,0.0,0.0,86,0.00,,,0.00,Wunderground v.1.15,2013-10-09 03:39:00,
2013-10-08 23:49:00,50.8,47.1,30.19,North,32767,0.0,0.0,87,0.00,,,0.00,Wunderground v.1.15,2013-10-09 03:49:00,
2013-10-08 23:54:00,50.9,47.2,30.19,North,360,0.0,0.0,87,0.00,,,0.00,Wunderground v.1.15,2013-10-09 03:54:00,